»·PEaware :: N378L KBUR-KSNA

N378L :: KBUR-KSNA

FLIGHT INFORMATION

Flight Status: Arrived
Operator: Privately registered:
United States
More flights under this callsign
Pilot: Wilver N. (25840)
Aircraft: CESSNA 172 SKYHAWK
(C172)
More flights by this aircraft type
Origin: KBUR Bob Hope-Burbank
United States
Destination: KSNA John Wayne-Orange Co
United States
More flights between these airports :: More routes between these airports
Route: ELMOO9 ELMOO V186 BAYJY V363 POXKU V8 SLI
File this flight plan on PilotEdge
Remarks:
Altitude:
(Current/Filed)
5,000ft
Speed:
(Current/Filed)
120kts
Departed: 13-Jan-21 06:12 PM
Arrived: 13-Jan-21 06:36 PM
Distance/Time
Traveled:
40nm/0:24
Distance/Time
To Go:
Arrived

Flight Plot

Page will automatically refresh every two minutes.

Flight plan parsing failed; only flown route is shown


Map Options




Map Legend


Flown Route
Filed Route
Departure Airport
Arrival Airport
Navaid (VOR, NDB)
Fix

Horizontal Profiles

Position Reports

Time Latitude Longitude Heading Altitude Ground
Speed
13-Jan-21 17:24 34.196706 -118.352868 179 698ft 0kts
13-Jan-21 17:25 34.196706 -118.352868 179 698ft 0kts
13-Jan-21 17:26 34.196706 -118.352868 179 698ft 0kts
13-Jan-21 17:27 34.196706 -118.352868 179 698ft 0kts
13-Jan-21 17:28 34.196706 -118.352868 179 698ft 0kts
13-Jan-21 17:29 34.196706 -118.352868 179 698ft 0kts
13-Jan-21 17:30 34.196706 -118.352868 179 698ft 0kts
13-Jan-21 17:31 34.196706 -118.352868 179 698ft 0kts
13-Jan-21 17:32 34.196706 -118.352868 179 698ft 0kts
13-Jan-21 17:33 34.196706 -118.352868 179 698ft 0kts
13-Jan-21 17:34 34.196706 -118.352868 179 698ft 0kts
13-Jan-21 17:36 34.196706 -118.352868 179 698ft 0kts
13-Jan-21 17:37 34.196706 -118.352868 179 698ft 0kts
13-Jan-21 17:38 34.196706 -118.352868 179 698ft 0kts
13-Jan-21 17:39 34.196706 -118.352868 179 698ft 0kts
13-Jan-21 17:40 34.196706 -118.352868 179 698ft 0kts
13-Jan-21 17:41 34.196706 -118.352868 179 698ft 0kts
13-Jan-21 17:42 34.196706 -118.352868 179 698ft 0kts
13-Jan-21 17:43 34.196706 -118.352868 179 698ft 0kts
13-Jan-21 17:44 34.196792 -118.352811 355 698ft 3kts
13-Jan-21 17:45 34.197014 -118.352914 303 698ft 0kts
13-Jan-21 17:46 34.197141 -118.350292 86 693ft 2kts
13-Jan-21 17:47 34.197166 -118.350224 15 693ft 0kts
13-Jan-21 17:48 34.197166 -118.350224 15 693ft 0kts
13-Jan-21 17:49 34.197166 -118.350224 15 693ft 0kts
13-Jan-21 17:50 34.197166 -118.350224 15 693ft 0kts
13-Jan-21 17:51 34.197166 -118.350224 15 693ft 0kts
13-Jan-21 17:52 34.197166 -118.350224 15 693ft 0kts
13-Jan-21 17:53 34.197166 -118.350224 15 693ft 0kts
13-Jan-21 17:53 34.197166 -118.350224 15 693ft 0kts
13-Jan-21 17:55 34.197166 -118.350224 15 693ft 0kts
13-Jan-21 17:59 34.209825 -118.358758 269 756ft 0kts
13-Jan-21 18:00 34.209825 -118.358758 269 756ft 0kts
13-Jan-21 18:01 34.209825 -118.358758 269 756ft 0kts
13-Jan-21 18:02 34.209825 -118.358758 269 756ft 0kts
13-Jan-21 18:03 34.209825 -118.358758 269 756ft 0kts
13-Jan-21 18:11 34.073954 -118.051322 134 3780ft 116kts
13-Jan-21 18:12 34.075555 -118.014787 73 3780ft 116kts
13-Jan-21 18:13 34.066091 -117.978697 116 3780ft 116kts
13-Jan-21 18:14 34.053546 -117.942640 109 3780ft 116kts
13-Jan-21 18:15 34.043397 -117.907189 108 4086ft 104kts
13-Jan-21 18:16 34.033953 -117.874097 108 4687ft 104kts
13-Jan-21 18:17 34.023563 -117.837763 109 4780ft 119kts
13-Jan-21 18:18 34.012682 -117.799769 109 4780ft 120kts
13-Jan-21 18:19 33.986867 -117.778517 163 4780ft 120kts
13-Jan-21 18:20 33.954140 -117.771366 179 4780ft 120kts
13-Jan-21 18:21 33.920823 -117.774141 185 4780ft 120kts
13-Jan-21 18:22 33.891875 -117.771678 162 4212ft 95kts
13-Jan-21 18:23 33.866794 -117.764876 190 3608ft 92kts
13-Jan-21 18:24 33.840070 -117.771620 192 3019ft 103kts
13-Jan-21 18:25 33.813874 -117.778300 191 2773ft 79kts
13-Jan-21 18:26 33.790723 -117.788983 230 2381ft 96kts
13-Jan-21 18:27 33.772014 -117.807793 224 1799ft 90kts
13-Jan-21 18:28 33.750242 -117.821709 202 1229ft 88kts
13-Jan-21 18:29 33.732183 -117.833683 207 973ft 85kts
13-Jan-21 18:30 33.732183 -117.833683 207 973ft 85kts
13-Jan-21 18:31 33.732183 -117.833683 207 973ft 85kts
13-Jan-21 18:32 33.732183 -117.833683 207 973ft 85kts
13-Jan-21 18:35 33.676994 -117.869494 28 60ft 15kts
13-Jan-21 18:36 33.678772 -117.868649 69 60ft 0kts
13-Jan-21 18:37 33.678772 -117.868648 69 60ft 0kts

Navigation Log

Ident Type
Flight plan parsing failed, navigation log unavailable